Flight Track Log - Related Links

Times and Time Zones

All times are in EDT time to prevent confusion due to time zone crossing. See the SWA2610 flight status page for this flight to view local times or setup timezone preferences in your user account.


Time Position Orientation Groundspeed Altitude Reporting Facility
EDT Latitude Longitude Course Direction KTS MPH feet Rate Location/Type
Tue 01:21:56 PM 36.0772 -115.1731 263° West 175 201 3,100  Level Los Angeles Center
Tue 01:22:57 PM 36.0706 -115.2419 263° West 228 262 4,600 1,820 Climbing Los Angeles Center
Tue 01:23:58 PM 36.0008 -115.2886 208° Southwest 279 321 6,800 2,250 Climbing Los Angeles Center
Tue 01:25:13 PM 35.9228 -115.2597 163° South 293 337 9,700 1,772 Climbing Los Angeles Center
Tue 01:26:27 PM 35.9197 -115.1508 92° East 319 367 11,200 2,029 Climbing Los Angeles Center
Tue 01:27:29 PM 35.9208 -114.9692 90° East 371 427 14,300 2,640 Climbing Los Angeles Center
Tue 01:28:32 PM 35.9219 -114.8286 89° East 402 463 16,700 2,400 Climbing Los Angeles Center
Tue 01:29:34 PM 35.9225 -114.6881 90° East 410 472 19,300 2,226 Climbing Los Angeles Center
Tue 01:30:36 PM 35.9228 -114.5422 90° East 419 482 21,300 1,676 Climbing Los Angeles Center
Tue 01:31:50 PM 35.9225 -114.3917 90° East 433 498 23,100 1,500 Climbing Los Angeles Center
Tue 01:33:04 PM 35.9239 -114.2042 89° East 451 519 25,000 1,752 Climbing Los Angeles Center
Tue 01:34:07 PM 35.9233 -113.9797 90° East 465 535 27,100 1,632 Climbing Los Angeles Center
Tue 01:35:09 PM 35.9075 -113.8167 97° East 480 552 28,400 1,306 Climbing Los Angeles Center
Tue 01:36:11 PM 35.8731 -113.6550 105° East 487 560 29,800 1,548 Climbing Los Angeles Center
Tue 01:37:13 PM 35.8394 -113.4900 104° East 486 559 31,600 1,452 Climbing Los Angeles Center
Tue 01:38:15 PM 35.8128 -113.3644 105° East 477 549 32,800 1,248 Climbing Los Angeles Center
Tue 01:39:18 PM 35.7581 -113.1850 111° Southeast 469 540 34,200 1,056 Climbing Los Angeles Center
Tue 01:40:20 PM 35.6761 -113.0269 123° Southeast 465 535 35,000 387 Climbing Los Angeles Center
Tue 01:41:22 PM 35.6047 -112.8892 122° Southeast 473 544 35,000  Level Los Angeles Center
Tue 01:42:24 PM 35.5325 -112.7525 123° Southeast 476 548 35,000  Level Los Angeles Center
Tue 01:43:26 PM 35.4572 -112.6111 123° Southeast 472 543 35,000  Level Los Angeles Center
Tue 01:44:40 PM 35.3858 -112.4753 123° Southeast 471 542 35,000  Level Los Angeles Center
Tue 01:45:43 PM 35.3000 -112.3139 123° Southeast 472 543 35,000  Level Los Angeles Center
Tue 01:46:45 PM 35.2297 -112.1800 123° Southeast 470 541 35,000  Level Los Angeles Center
Tue 01:47:47 PM 35.1581 -112.0481 124° Southeast 468 539 35,000  Level Los Angeles Center
Tue 01:48:57 PM 35.0725 -111.8900 123° Southeast 466 536 35,000  Level Albuquerque Center
Tue 01:49:59 PM 34.9869 -111.7322 123° Southeast 467 537 35,000  Level Albuquerque Center
Tue 01:51:01 PM 34.9142 -111.5975 123° Southeast 466 536 35,000  Level Albuquerque Center
Tue 01:52:03 PM 34.8419 -111.4647 124° Southeast 467 537 35,000  Level Albuquerque Center
Tue 01:53:05 PM 34.7703 -111.3328 123° Southeast 467 537 35,000  Level Albuquerque Center
Tue 01:54:07 PM 34.6989 -111.2008 123° Southeast 467 537 35,000  Level Albuquerque Center
Tue 01:55:09 PM 34.6267 -111.0700 124° Southeast 465 535 35,000  Level Albuquerque Center
Tue 01:56:11 PM 34.5547 -110.9397 124° Southeast 465 535 35,000  Level Albuquerque Center
Tue 01:57:13 PM 34.4836 -110.8103 124° Southeast 462 532 35,000  Level Albuquerque Center
Tue 01:58:15 PM 34.3994 -110.6575 124° Southeast 456 525 35,000  Level Albuquerque Center
Tue 01:59:17 PM 34.3303 -110.5303 123° Southeast 451 519 35,000  Level Albuquerque Center
Tue 02:00:19 PM 34.2614 -110.4092 125° Southeast 456 525 35,000  Level Albuquerque Center
Tue 02:01:21 PM 34.1897 -110.2794 124° Southeast 465 535 35,000  Level Albuquerque Center
Tue 02:02:23 PM 34.1053 -110.1281 124° Southeast 460 529 35,000  Level Albuquerque Center
Tue 02:03:25 PM 34.0319 -110.0000 125° Southeast 460 529 35,000  Level Albuquerque Center
Tue 02:04:27 PM 33.9625 -109.8750 124° Southeast 460 529 35,000  Level Albuquerque Center
Tue 02:05:29 PM 33.8903 -109.7486 125° Southeast 461 531 35,000  Level Albuquerque Center
Tue 02:06:31 PM 33.8189 -109.6217 124° Southeast 462 532 35,000  Level Albuquerque Center
Tue 02:07:33 PM 33.7314 -109.4714 125° Southeast 462 532 35,000  Level Albuquerque Center
Tue 02:08:35 PM 33.6586 -109.3469 125° Southeast 460 529 35,000  Level Albuquerque Center
Tue 02:09:37 PM 33.5875 -109.2217 124° Southeast 457 526 35,000  Level Albuquerque Center
Tue 02:10:39 PM 33.5150 -109.0972 125° Southeast 457 526 35,000  Level Albuquerque Center
Tue 02:11:41 PM 33.4431 -108.9736 125° Southeast 455 524 35,000  Level Albuquerque Center
Tue 02:12:43 PM 33.3708 -108.8492 125° Southeast 455 524 35,000  Level Albuquerque Center
Tue 02:13:45 PM 33.2842 -108.7008 125° Southeast 453 521 35,000  Level Albuquerque Center
Tue 02:14:47 PM 33.2100 -108.5775 126° Southeast 456 525 35,000  Level Albuquerque Center
Tue 02:15:49 PM 33.1381 -108.4539 125° Southeast 455 524 35,000  Level Albuquerque Center
Tue 02:16:51 PM 33.0647 -108.3325 126° Southeast 453 521 35,000  Level Albuquerque Center
Tue 02:17:53 PM 32.9919 -108.2106 125° Southeast 453 521 35,000  Level Albuquerque Center
Tue 02:18:55 PM 32.9094 -108.0736 126° Southeast 453 521 35,000  Level Albuquerque Center
Tue 02:19:57 PM 32.8372 -107.9522 125° Southeast 451 519 35,000  Level Albuquerque Center
Tue 02:20:59 PM 32.7642 -107.8314 126° Southeast 452 520 35,000  Level Albuquerque Center
Tue 02:22:00 PM 32.6911 -107.7097 125° Southeast 452 520 35,000  Level Albuquerque Center
Tue 02:23:02 PM 32.6189 -107.5911 126° Southeast 448 516 35,000  Level Albuquerque Center
Tue 02:24:04 PM 32.5447 -107.4661 125° Southeast 445 512 35,000  Level Albuquerque Center
Tue 02:25:06 PM 32.4589 -107.3247 126° Southeast 444 511 35,000  Level Albuquerque Center
Tue 02:26:08 PM 32.3878 -107.2072 126° Southeast 443 510 35,000  Level Albuquerque Center
Tue 02:27:09 PM 32.3139 -107.0797 124° Southeast 441 507 35,000  Level Albuquerque Center
Tue 02:28:11 PM 32.2400 -106.9619 127° Southeast 445 512 35,000  Level Albuquerque Center
Tue 02:29:13 PM 32.1672 -106.8431 126° Southeast 439 505 35,000  Level Albuquerque Center
Tue 02:30:15 PM 32.0942 -106.7256 126° Southeast 444 511 35,000  Level Albuquerque Center
Tue 02:31:16 PM 32.0206 -106.6081 126° Southeast 447 514 35,000  Level Albuquerque Center
Tue 02:32:18 PM 31.9689 -106.4781 115° Southeast 451 519 35,000  Level Albuquerque Center
Tue 02:33:20 PM 31.9517 -106.3350 98° East 446 513 35,000  Level Albuquerque Center
Tue 02:34:22 PM 31.9317 -106.1903 99° East 448 516 35,000  Level Albuquerque Center
Tue 02:35:24 PM 31.9103 -106.0186 98° East 445 512 35,000  Level Albuquerque Center
Tue 02:36:25 PM 31.8897 -105.8658 99° East 448 516 35,000  Level Albuquerque Center
Tue 02:37:27 PM 31.8717 -105.7217 98° East 447 514 35,000  Level Albuquerque Center
Tue 02:38:29 PM 31.8531 -105.5764 99° East 449 517 35,000  Level Albuquerque Center
Tue 02:39:31 PM 31.8344 -105.4308 99° East 450 518 35,000  Level Albuquerque Center
Tue 02:40:32 PM 31.8161 -105.2847 98° East 451 519 35,000  Level Albuquerque Center
Tue 02:41:34 PM 31.7964 -105.1392 99° East 451 519 35,000  Level Albuquerque Center
Tue 02:42:36 PM 31.7783 -104.9931 98° East 450 518 35,000  Level Albuquerque Center
Tue 02:43:38 PM 31.7583 -104.8464 99° East 452 520 35,000  Level Albuquerque Center
Tue 02:44:39 PM 31.7350 -104.6700 99° East 454 522 35,000  Level Albuquerque Center
Tue 02:45:41 PM 31.7164 -104.5244 99° East 451 519 35,000  Level Albuquerque Center
Tue 02:46:43 PM 31.6967 -104.3789 99° East 450 518 35,000  Level Albuquerque Center
Tue 02:47:45 PM 31.6750 -104.2314 100° East 455 524 35,000  Level Albuquerque Center
Tue 02:48:46 PM 31.6567 -104.0853 98° East 453 521 35,000  Level Albuquerque Center
Tue 02:49:48 PM 31.6361 -103.9400 99° East 451 519 35,000  Level Albuquerque Center
Tue 02:50:50 PM 31.6164 -103.7947 99° East 452 520 35,000  Level Albuquerque Center
Tue 02:51:52 PM 31.5922 -103.6428 101° East 451 519 35,000  Level Albuquerque Center
Tue 02:52:53 PM 31.5700 -103.4864 99° East 447 514 35,000  Level Albuquerque Center
Tue 02:53:55 PM 31.5481 -103.3433 100° East 446 513 35,000  Level Albuquerque Center
Tue 02:54:57 PM 31.5278 -103.2003 99° East 446 513 35,000  Level Albuquerque Center
Tue 02:55:59 PM 31.5061 -103.0572 100° East 446 513 35,000  Level Albuquerque Center
Tue 02:57:00 PM 31.4803 -102.8844 100° East 449 517 35,000  Level Albuquerque Center
Tue 02:58:02 PM 31.4575 -102.7400 100° East 449 517 35,000  Level Albuquerque Center
Tue 02:59:04 PM 31.4361 -102.5953 100° East 451 519 35,000  Level Albuquerque Center
Tue 03:00:06 PM 31.4150 -102.4644 101° East 469 540 35,000  Level Albuquerque Center
Tue 03:01:07 PM 31.3886 -102.2897 100° East 461 531 35,000  Level Albuquerque Center
Tue 03:02:09 PM 31.3661 -102.1444 100° East 457 526 35,000  Level Albuquerque Center
Tue 03:03:11 PM 31.3433 -101.9997 100° East 457 526 35,000  Level Albuquerque Center
Tue 03:04:13 PM 31.3206 -101.8511 100° East 456 525 35,000  Level Albuquerque Center
Tue 03:05:15 PM 31.2972 -101.7053 101° East 457 526 35,000  Level Albuquerque Center
Tue 03:05:59 PM 31.2797 -101.5897 100° East 455 524 35,000  Level Houston Center
Tue 03:07:01 PM 31.2556 -101.4447 101° East 454 522 35,000  Level Houston Center
Tue 03:08:03 PM 31.2314 -101.2992 101° East 456 525 35,000  Level Houston Center
Tue 03:09:05 PM 31.2064 -101.1411 100° East 454 522 35,000  Level Houston Center
Tue 03:10:07 PM 31.1828 -100.9956 101° East 454 522 35,000  Level Houston Center
Tue 03:11:09 PM 31.1589 -100.8511 101° East 454 522 35,000  Level Houston Center
Tue 03:12:10 PM 31.1350 -100.7047 101° East 459 528 35,000  Level Houston Center
Tue 03:13:12 PM 31.1094 -100.5600 102° East 456 525 35,000  Level Houston Center
Tue 03:14:14 PM 31.0792 -100.3850 101° East 458 527 35,000  Level Houston Center
Tue 03:15:16 PM 31.0550 -100.2389 101° East 459 528 35,000  Level Houston Center
Tue 03:16:18 PM 31.0300 -100.0942 101° East 456 525 35,000  Level Houston Center
Tue 03:17:20 PM 31.0047 -99.9481 101° East 459 528 35,000  Level Houston Center
Tue 03:18:22 PM 30.9792 -99.8017 101° East 461 531 35,000  Level Houston Center
Tue 03:19:25 PM 30.9533 -99.6561 102° East 459 528 35,000  Level Houston Center
Tue 03:20:26 PM 30.9278 -99.5108 102° East 458 527 35,000  Level Houston Center
Tue 03:21:28 PM 30.8958 -99.3378 102° East 457 526 35,000  Level Houston Center
Tue 03:22:30 PM 30.8706 -99.1942 102° East 452 520 35,000  Level Houston Center
Tue 03:23:32 PM 30.8450 -99.0572 102° East 452 520 35,000  Level Houston Center
Tue 03:24:34 PM 30.8189 -98.9136 102° East 450 518 35,000  Level Houston Center
Tue 03:25:35 PM 30.7936 -98.7706 102° East 450 518 35,000  Level Houston Center
Tue 03:26:37 PM 30.7792 -98.6003 96° East 450 518 35,000  Level Houston Center
Tue 03:27:39 PM 30.7647 -98.4567 97° East 446 513 35,000  Level Houston Center
Tue 03:28:41 PM 30.7511 -98.3128 96° East 446 513 35,000  Level Houston Center
Tue 03:29:43 PM 30.7378 -98.1686 96° East 445 512 35,000  Level Houston Center
Tue 03:30:45 PM 30.7236 -98.0244 96° East 446 513 35,000  Level Houston Center
Tue 03:31:47 PM 30.7097 -97.8800 96° East 446 513 35,000 -484 Level Houston Center
Tue 03:32:49 PM 30.6956 -97.7356 96° East 448 516 34,000 -968 Descending Houston Center
Tue 03:33:51 PM 30.6803 -97.5925 97° East 446 513 33,000 -1,210 Descending Houston Center
Tue 03:34:53 PM 30.6431 -97.4269 105° East 457 526 31,500 -1,756 Descending Houston Center
Tue 03:35:54 PM 30.5964 -97.2939 112° Southeast 446 513 29,400 -2,098 Descending Houston Center
Tue 03:36:56 PM 30.5500 -97.1614 112° Southeast 443 510 27,200 -2,081 Descending Houston Center
Tue 03:37:58 PM 30.5042 -97.0339 113° Southeast 429 494 25,100 -1,984 Descending Houston Center
Tue 03:39:00 PM 30.4600 -96.9100 112° Southeast 417 480 23,100 -1,935 Descending Houston Center
Tue 03:40:02 PM 30.4172 -96.7906 113° Southeast 402 463 21,100 -2,032 Descending Houston Center
Tue 03:41:04 PM 30.3692 -96.6564 113° Southeast 386 444 18,900 -2,032 Descending Houston Center
Tue 03:42:06 PM 30.3294 -96.5464 113° Southeast 371 427 16,900 -1,978 Descending Houston Center
Tue 03:42:35 PM 30.3092 -96.4892 112° Southeast 365 420 15,900 -1,935 Descending Houston Center
Tue 03:43:08 PM 30.2894 -96.4381 114° Southeast 364 419 14,900 -1,964 Descending Houston Center
Tue 03:43:30 PM 30.2717 -96.3917 114° Southeast 362 417 14,100 -1,742 Descending Houston Center
Tue 03:44:10 PM 30.2511 -96.3314 112° Southeast 358 412 13,100 -1,791 Descending Houston Center
Tue 03:44:37 PM 30.2303 -96.2731 112° Southeast 352 405 12,100 -1,839 Descending Houston Center
Tue 03:45:12 PM 30.2133 -96.2272 113° Southeast 348 400 11,200 -1,179 Descending Houston Center
Tue 03:45:33 PM 30.1839 -96.1961 138° Southeast 339 390 11,000 -194 Descending Houston Center
Tue 03:46:14 PM 30.1306 -96.1653 153° Southeast 333 383 11,000  Level Houston Center
Tue 03:46:34 PM 30.1014 -96.1378 141° Southeast 334 384 11,000  Level Houston Center
Tue 03:47:15 PM 30.0669 -96.1022 138° Southeast 337 388 11,000  Level Houston Center
Tue 03:47:34 PM 30.0275 -96.0617 138° Southeast 353 406 11,000 -387 Level Houston Center
Tue 03:48:17 PM 29.9808 -96.0114 137° Southeast 348 400 10,600 -716 Descending Houston Center
Tue 03:48:41 PM 29.9536 -95.9833 138° Southeast 313 360 10,200 -581 Descending Houston Center
Tue 03:49:19 PM 29.9239 -95.9528 138° Southeast 316 364 10,000 -545 Descending Houston Center
Tue 03:49:36 PM 29.8983 -95.9247 136° Southeast 295 339 9,700 -1,161 Descending Houston Center
Tue 03:50:21 PM 29.8642 -95.8897 138° Southeast 295 339 8,800 -1,452 Descending Houston Center
Tue 03:50:38 PM 29.8381 -95.8617 137° Southeast 294 338 8,200 -1,452 Descending Houston Center
Tue 03:51:23 PM 29.7933 -95.8150 138° Southeast 290 334 7,300 -1,343 Descending Houston Center
Tue 03:51:45 PM 29.7689 -95.7903 139° Southeast 284 327 6,700 -1,258 Descending Houston Center
Tue 03:52:25 PM 29.7347 -95.7544 138° Southeast 283 326 6,000 -689 Descending Houston Center
Tue 03:52:46 PM 29.7111 -95.7297 138° Southeast 280 322 6,000  Level Houston Center
Tue 03:53:27 PM 29.6786 -95.6956 138° Southeast 276 318 6,000 -583 Level Houston Center
Tue 03:54:29 PM 29.6211 -95.6386 139° Southeast 273 314 5,000 -1,185 Descending Houston Center
Tue 03:54:48 PM 29.5972 -95.6083 132° Southeast 280 322 4,400 -1,161 Descending Houston Center
Tue 03:55:31 PM 29.5661 -95.5811 143° Southeast 271 312 3,800 -1,082 Descending Houston Center
Tue 03:55:49 PM 29.5436 -95.5500 130° Southeast 261 300 3,300 -774 Descending Houston Center
Tue 03:56:33 PM 29.5403 -95.4933 94° East 260 299 3,000 -295 Descending Houston Center
Tue 03:56:50 PM 29.5386 -95.4714 95° East 242 278 3,000 -387 Level Houston Center
Tue 03:57:35 PM 29.5367 -95.4214 93° East 238 274 2,600 -581 Descending Houston Center
Tue 03:57:52 PM 29.5367 -95.4019 90° East 213 245 2,400 -677 Descending Houston Center
Tue 03:58:37 PM 29.5614 -95.3714 47° Northeast 217 250 1,900 -590 Descending Houston Center
Tue 03:58:53 PM 29.5744 -95.3567 44° Northeast 190 219 1,800 -774 Descending Houston Center
Tue 03:59:39 PM 29.5989 -95.3311 42° Northeast 196 226 1,100 -771 Descending Houston Center
Tue 04:00:42 PM 29.6308 -95.2950 44° Northeast 175 201 400 -480 Descending Houston Center
Tue 04:01:44 PM 29.6675 -95.2528 45° Northeast 169 194 100 -290 Descending Houston Center

Login

Don't have an account? Register now (free) for customized features, flight alerts, and more!